Terminal Aerodrome Forecast
Issued by NWS Sterling, VA

Home | Current Version | Previous Version | Text Only | Print | Product List | Glossary On
Versions: 1 2 3 4 5 6 7 8 9 10 11 12 13
000
FTUS41 KLWX 272339
TAFCHO
TAF
KCHO 272339Z 2800/2824 00000KT P6SM BKN250
     FM280700 00000KT 5SM BR BKN250
     FM281000 VRB03KT 2SM BR BKN200
     FM281200 VRB03KT P6SM BKN150=

USA.gov is the U.S. government's official web portal to all federal, state and local government web resources and services.